Time;durP1;ratioP1;P1;durP2;ratioP2;P2;SDS_P1;SDS_P2;PMS_P1;PMS_P2;Temp;Humidity;BMP_temperature;BMP_pressure;BME280_temperature;BME280_humidity;BME280_pressure;Samples;Min_cycle;Max_cycle;Signal;HPM_P1;HPM_P2
2023/01/16 00:00:13;;;;;;;5.05;1.42;;;;;;;1.29;100.00;98199.31;5056784;28;20513;-55
2023/01/16 00:02:38;;;;;;;10.95;2.90;;;;;;;1.35;100.00;98202.19;5059653;28;20028;-57
2023/01/16 00:05:04;;;;;;;2.67;1.48;;;;;;;1.43;100.00;98194.22;5061072;28;20020;-56
2023/01/16 00:07:29;;;;;;;6.15;1.70;;;;;;;1.47;100.00;98178.00;5055747;28;20364;-57
2023/01/16 00:09:55;;;;;;;9.23;2.25;;;;;;;1.50;100.00;98174.19;5058729;28;20359;-56
2023/01/16 00:12:20;;;;;;;13.93;4.20;;;;;;;1.51;100.00;98166.16;5052160;28;20482;-52
2023/01/16 00:14:45;;;;;;;6.13;1.52;;;;;;;1.57;100.00;98171.63;5057132;28;20025;-56
2023/01/16 00:17:11;;;;;;;5.38;2.00;;;;;;;1.73;100.00;98156.47;5052634;28;20059;-53
2023/01/16 00:19:36;;;;;;;9.45;1.35;;;;;;;1.89;100.00;98155.38;5056823;28;20111;-54
2023/01/16 00:22:01;;;;;;;6.85;1.05;;;;;;;2.06;100.00;98147.22;5054564;28;20446;-54
2023/01/16 00:24:27;;;;;;;5.05;2.55;;;;;;;2.18;100.00;98143.84;5055129;28;20033;-56
2023/01/16 00:26:52;;;;;;;0.73;0.70;;;;;;;2.21;100.00;98134.03;5058691;28;20138;-57
2023/01/16 00:29:17;;;;;;;4.53;0.82;;;;;;;2.18;100.00;98125.56;5061668;28;20044;-55
2023/01/16 00:31:43;;;;;;;5.40;1.10;;;;;;;2.39;100.00;98122.00;5056173;28;20032;-55
2023/01/16 00:34:08;;;;;;;8.18;1.35;;;;;;;2.57;100.00;98104.97;5057344;28;20512;-56
2023/01/16 00:36:33;;;;;;;8.18;1.27;;;;;;;2.61;100.00;98093.91;5056528;28;20107;-57
2023/01/16 00:38:59;;;;;;;6.20;2.13;;;;;;;2.64;100.00;98082.25;5056647;28;20060;-54
2023/01/16 00:41:24;;;;;;;8.60;0.90;;;;;;;2.83;100.00;98078.84;5061018;28;20028;-55
2023/01/16 00:43:50;;;;;;;2.58;1.15;;;;;;;2.93;100.00;98070.59;5064175;28;20021;-55
2023/01/16 00:46:15;;;;;;;0.60;0.50;;;;;;;2.97;100.00;98060.53;5058297;28;20024;-58
2023/01/16 00:48:41;;;;;;;7.80;1.00;;;;;;;3.04;100.00;98043.81;5056152;28;20402;-58
2023/01/16 00:51:06;;;;;;;2.85;0.93;;;;;;;3.00;100.00;98041.81;5058672;28;21115;-58
2023/01/16 00:53:31;;;;;;;4.95;0.73;;;;;;;3.02;100.00;98037.16;5054445;28;20167;-58
2023/01/16 00:55:57;;;;;;;2.88;0.85;;;;;;;3.02;100.00;98026.69;5052706;28;20028;-58
2023/01/16 00:58:22;;;;;;;3.28;0.93;;;;;;;3.04;100.00;98025.50;5054954;28;20075;-56
2023/01/16 01:00:47;;;;;;;5.03;1.23;;;;;;;3.09;100.00;98018.84;5054886;28;20037;-58
2023/01/16 01:03:13;;;;;;;2.10;0.90;;;;;;;3.11;100.00;98017.63;5056734;28;20161;-55
2023/01/16 01:05:39;;;;;;;3.55;1.00;;;;;;;3.25;100.00;98000.09;5055421;28;20029;-55
2023/01/16 01:08:05;;;;;;;2.75;0.52;;;;;;;3.41;100.00;97991.00;5054664;28;20033;-58
2023/01/16 01:10:31;;;;;;;2.30;0.57;;;;;;;3.51;100.00;97986.13;5056185;28;20046;-58
2023/01/16 01:12:56;;;;;;;2.67;1.08;;;;;;;3.57;100.00;97974.81;5054448;28;20437;-55
2023/01/16 01:15:23;;;;;;;4.78;0.88;;;;;;;3.63;100.00;97960.88;5057707;28;20090;-57
2023/01/16 01:17:48;;;;;;;10.32;2.10;;;;;;;3.67;100.00;97958.69;5058883;28;20501;-58
2023/01/16 01:20:14;;;;;;;3.42;0.32;;;;;;;3.70;100.00;97945.94;5057124;28;20029;-59
2023/01/16 01:22:39;;;;;;;9.35;0.77;;;;;;;3.72;100.00;97938.69;5055194;28;20028;-58
2023/01/16 01:25:05;;;;;;;1.27;0.50;;;;;;;3.66;100.00;97929.03;5060589;28;20037;-57
2023/01/16 01:27:30;;;;;;;2.33;0.40;;;;;;;3.58;100.00;97934.50;5053754;28;20028;-58
2023/01/16 01:29:55;;;;;;;4.80;0.50;;;;;;;3.54;100.00;97924.63;5055068;28;20039;-57
2023/01/16 01:32:21;;;;;;;3.85;1.52;;;;;;;3.60;100.00;97918.59;5056303;28;20050;-59
2023/01/16 01:34:46;;;;;;;14.57;0.57;;;;;;;3.62;100.00;97919.19;5052994;28;20037;-58
2023/01/16 01:37:11;;;;;;;3.28;1.00;;;;;;;3.63;100.00;97905.84;5055270;28;20035;-58
2023/01/16 01:39:37;;;;;;;6.85;1.40;;;;;;;3.60;100.00;97895.81;5052751;28;20044;-59
2023/01/16 01:44:56;;;;;;;5.20;1.15;;;;;;;3.34;100.00;97888.06;5053353;28;20036;-57
2023/01/16 01:47:29;;;;;;;8.23;0.80;;;;;;;3.39;100.00;97875.94;5057429;28;20029;-58
2023/01/16 01:49:57;;;;;;;5.25;0.93;;;;;;;3.36;100.00;97875.56;5055415;28;20058;-58
2023/01/16 01:52:26;;;;;;;5.88;1.23;;;;;;;3.41;100.00;97867.91;5052909;28;20036;-59
2023/01/16 01:54:56;;;;;;;3.05;1.58;;;;;;;3.38;100.00;97869.13;5053915;28;20394;-58
2023/01/16 01:57:32;;;;;;;11.82;1.85;;;;;;;3.41;100.00;97855.59;5070263;28;20540;-55
2023/01/16 02:00:19;;;;;;;13.60;1.00;;;;;;;3.45;100.00;97858.59;5060106;28;20029;-58
2023/01/16 02:03:07;;;;;;;7.07;0.68;;;;;;;3.44;100.00;97851.75;5063860;28;20036;-59
2023/01/16 02:05:37;;;;;;;3.13;1.52;;;;;;;3.37;100.00;97845.75;5057112;28;20547;-58
2023/01/16 02:08:04;;;;;;;2.03;0.98;;;;;;;3.40;100.00;97837.47;5058551;28;20029;-53
2023/01/16 02:10:47;;;;;;;4.68;1.42;;;;;;;3.27;100.00;97833.88;5057329;28;20044;-56
2023/01/16 02:13:12;;;;;;;7.50;0.55;;;;;;;3.25;100.00;97827.25;5058700;28;20039;-57
2023/01/16 02:19:15;;;;;;;6.47;0.57;;;;;;;3.20;100.00;97819.22;5060604;28;20025;-58
2023/01/16 02:21:30;;;;;;;5.63;0.30;;;;;;;3.15;100.00;97803.31;5051894;28;20051;-54
2023/01/16 02:24:29;;;;;;;1.77;1.05;;;;;;;3.14;100.00;97799.91;5057189;28;20414;-57
2023/01/16 02:27:00;;;;;;;3.60;1.15;;;;;;;3.15;100.00;97798.09;5061132;28;20024;-54
2023/01/16 02:29:47;;;;;;;0.70;0.30;;;;;;;3.20;100.00;97793.03;5070000;28;20031;-57
2023/01/16 02:32:33;;;;;;;2.85;0.43;;;;;;;3.12;100.00;97783.59;5052785;28;20039;-58
2023/01/16 02:35:09;;;;;;;5.72;0.20;;;;;;;3.20;100.00;97783.38;5062570;28;20035;-58
2023/01/16 02:37:49;;;;;;;2.95;0.38;;;;;;;3.32;100.00;97774.84;5060468;28;20104;-57
2023/01/16 02:40:29;;;;;;;1.38;0.32;;;;;;;3.14;100.00;97767.69;5059024;28;20533;-56
2023/01/16 02:43:03;;;;;;;4.38;1.40;;;;;;;3.34;100.00;97767.59;5053626;28;20553;-57
2023/01/16 02:45:40;;;;;;;4.13;0.20;;;;;;;3.32;100.00;97759.13;5060932;28;20041;-58
2023/01/16 02:48:11;;;;;;;1.58;1.48;;;;;;;3.25;100.00;97748.69;5055732;28;20131;-58
2023/01/16 02:50:54;;;;;;;1.73;0.28;;;;;;;3.18;100.00;97743.50;5059721;28;20025;-57
2023/01/16 02:53:31;;;;;;;4.20;0.17;;;;;;;3.16;100.00;97740.28;5074061;28;20033;-58
2023/01/16 02:56:04;;;;;;;2.53;0.50;;;;;;;3.19;100.00;97739.06;5062884;28;20028;-56
2023/01/16 02:58:32;;;;;;;0.80;0.25;;;;;;;3.16;100.00;97732.44;5067715;28;20324;-57
2023/01/16 03:00:59;;;;;;;2.88;0.98;;;;;;;3.32;100.00;97732.94;5054561;28;20558;-56
2023/01/16 03:03:37;;;;;;;7.32;0.28;;;;;;;3.41;100.00;97726.44;5065504;28;20043;-57
2023/01/16 03:06:31;;;;;;;2.85;1.35;;;;;;;3.40;100.00;97725.63;5058159;28;20109;-56
2023/01/16 03:09:05;;;;;;;0.40;0.20;;;;;;;3.39;100.00;97721.41;5054291;28;20071;-58
2023/01/16 03:11:36;;;;;;;4.25;0.52;;;;;;;3.37;100.00;97714.78;5057528;28;20033;-58
2023/01/16 03:14:05;;;;;;;;;;;;;;;3.45;100.00;97707.44;5067337;28;20021;-59
2023/01/16 03:16:45;;;;;;;1.67;0.40;;;;;;;3.40;100.00;97709.91;5060614;28;19921;-56
2023/01/16 03:19:35;;;;;;;9.32;0.50;;;;;;;3.39;100.00;97697.03;5056811;28;20027;-53
2023/01/16 03:22:10;;;;;;;1.23;0.15;;;;;;;3.41;100.00;97700.25;5060449;28;20116;-53
2023/01/16 03:25:09;;;;;;;6.15;0.17;;;;;;;3.40;100.00;97696.00;5064567;28;20113;-58
2023/01/16 03:27:56;;;;;;;6.10;0.50;;;;;;;3.38;100.00;97693.63;5059260;28;20078;-58
2023/01/16 03:30:31;;;;;;;1.73;0.15;;;;;;;3.26;100.00;97698.72;5059265;28;20532;-57
2023/01/16 03:33:09;;;;;;;3.88;1.20;;;;;;;3.41;100.00;97687.16;5069651;28;20032;-56
2023/01/16 03:35:41;;;;;;;0.43;0.28;;;;;;;3.40;100.00;97673.22;5059381;28;20032;-58
2023/01/16 03:38:10;;;;;;;3.30;1.25;;;;;;;3.29;100.00;97673.94;5068157;28;20210;-58
2023/01/16 03:40:43;;;;;;;1.27;0.28;;;;;;;3.30;100.00;97667.66;5062676;28;20032;-56
2023/01/16 03:43:18;;;;;;;3.00;0.38;;;;;;;3.34;100.00;97670.69;5054107;28;20033;-54
2023/01/16 03:45:52;;;;;;;6.25;0.20;;;;;;;3.36;100.00;97663.41;5051234;28;20021;-53
2023/01/16 03:48:32;;;;;;;9.02;0.40;;;;;;;3.37;100.00;97662.38;5060823;28;20060;-58
2023/01/16 03:51:02;;;;;;;4.78;0.80;;;;;;;3.41;100.00;97658.34;5065747;28;20036;-53
2023/01/16 03:53:34;;;;;;;1.95;0.17;;;;;;;3.45;100.00;97654.25;5062030;28;20396;-56
2023/01/16 03:56:20;;;;;;;0.75;0.05;;;;;;;3.52;100.00;97656.84;5060157;28;20068;-55
2023/01/16 03:58:50;;;;;;;2.65;0.03;;;;;;;3.24;100.00;97651.00;5055863;28;20390;-52
2023/01/16 04:01:18;;;;;;;0.03;0.00;;;;;;;3.20;100.00;97655.06;5069878;28;20257;-57
2023/01/16 04:03:52;;;;;;;0.77;0.10;;;;;;;3.22;100.00;97649.59;5064371;28;20028;-54
2023/01/16 04:06:26;;;;;;;4.68;1.02;;;;;;;3.15;100.00;97654.06;5059471;28;20044;-58
2023/01/16 04:08:54;;;;;;;8.50;0.43;;;;;;;3.27;100.00;97657.63;5063755;28;20477;-57
2023/01/16 04:11:22;;;;;;;0.95;0.28;;;;;;;3.33;100.00;97653.34;5070281;28;20086;-54
2023/01/16 04:13:52;;;;;;;0.98;0.10;;;;;;;3.25;100.00;97655.22;5066061;28;20031;-55
2023/01/16 04:16:20;;;;;;;0.57;0.00;;;;;;;3.15;100.00;97654.91;5059932;28;20386;-56
2023/01/16 04:18:48;;;;;;;5.45;1.10;;;;;;;3.12;100.00;97642.22;5059307;28;20493;-57
2023/01/16 04:21:14;;;;;;;1.17;0.15;;;;;;;3.21;100.00;97645.38;5055495;28;20025;-58
2023/01/16 04:23:39;;;;;;;1.52;0.20;;;;;;;3.28;100.00;97641.72;5062502;28;20516;-57
2023/01/16 04:26:04;;;;;;;1.20;0.10;;;;;;;3.28;100.00;97643.53;5057724;28;20529;-54
2023/01/16 04:28:30;;;;;;;1.35;0.20;;;;;;;3.36;100.00;97640.63;5068386;28;20037;-54
2023/01/16 04:30:55;;;;;;;2.90;0.10;;;;;;;3.42;100.00;97628.50;5061885;28;20078;-58
2023/01/16 04:33:20;;;;;;;1.33;0.08;;;;;;;3.44;100.00;97636.94;5060785;28;20094;-55
2023/01/16 04:35:46;;;;;;;5.07;0.55;;;;;;;3.41;100.00;97627.72;5060903;28;20058;-55
2023/01/16 04:38:12;;;;;;;6.25;0.35;;;;;;;3.46;100.00;97629.69;5059902;28;20509;-56
2023/01/16 04:40:37;;;;;;;0.20;0.00;;;;;;;3.47;100.00;97628.66;5054546;28;20090;-56
2023/01/16 04:43:03;;;;;;;1.65;0.10;;;;;;;3.47;100.00;97626.03;5057411;28;20032;-54
2023/01/16 04:45:28;;;;;;;0.10;0.00;;;;;;;3.41;100.00;97626.91;5062780;28;20028;-58
2023/01/16 04:47:53;;;;;;;0.65;0.65;;;;;;;3.41;100.00;97624.28;5058626;28;20041;-56
2023/01/16 04:50:19;;;;;;;3.33;0.32;;;;;;;3.43;100.00;97628.31;5065460;28;20044;-53
2023/01/16 04:52:45;;;;;;;1.55;0.77;;;;;;;3.42;100.00;97623.25;5056580;28;20025;-52
2023/01/16 04:55:11;;;;;;;2.92;0.38;;;;;;;3.33;100.00;97619.28;5058277;28;20032;-50
2023/01/16 04:57:37;;;;;;;5.10;1.25;;;;;;;3.36;100.00;97619.69;5056569;28;20025;-57
2023/01/16 05:00:07;;;;;;;1.17;0.00;;;;;;;3.42;100.00;97616.19;5057911;28;20039;-56
2023/01/16 05:02:32;;;;;;;1.10;0.38;;;;;;;3.45;100.00;97614.97;5064083;28;20094;-54
2023/01/16 05:04:58;;;;;;;3.28;0.68;;;;;;;3.46;100.00;97616.59;5054037;28;20025;-52
2023/01/16 05:07:26;;;;;;;0.65;0.03;;;;;;;3.50;100.00;97617.75;5058013;28;20504;-57
2023/01/16 05:09:51;;;;;;;2.58;0.45;;;;;;;3.48;100.00;97610.13;5066182;28;20055;-54
2023/01/16 05:12:17;;;;;;;3.05;0.10;;;;;;;3.46;100.00;97608.72;5062468;28;20024;-58
2023/01/16 05:14:42;;;;;;;1.95;0.30;;;;;;;3.48;100.00;97617.97;5056588;28;20028;-56
2023/01/16 05:17:07;;;;;;;0.77;0.15;;;;;;;3.52;100.00;97600.00;5056071;28;20043;-56
2023/01/16 05:19:33;;;;;;;3.05;0.10;;;;;;;3.48;100.00;97598.81;5071935;28;20054;-56
2023/01/16 05:21:58;;;;;;;3.30;0.30;;;;;;;3.33;100.00;97598.34;5069644;28;20025;-55
2023/01/16 05:24:23;;;;;;;5.68;0.88;;;;;;;3.29;100.00;97603.22;5061577;28;20078;-57
2023/01/16 05:26:49;;;;;;;5.18;0.52;;;;;;;3.19;100.00;97614.16;5056230;28;20466;-55
2023/01/16 05:29:14;;;;;;;3.85;1.42;;;;;;;3.24;100.00;97614.31;5063079;28;20028;-58
2023/01/16 05:31:40;;;;;;;1.17;0.65;;;;;;;3.20;100.00;97609.72;5070284;28;20025;-57
2023/01/16 05:34:05;;;;;;;4.85;1.02;;;;;;;3.11;100.00;97608.41;5061708;28;20029;-57
2023/01/16 05:36:30;;;;;;;1.80;0.63;;;;;;;3.06;100.00;97620.31;5056242;28;20119;-55
2023/01/16 05:38:55;;;;;;;3.63;1.70;;;;;;;3.00;100.00;97618.53;5055083;28;20056;-57
2023/01/16 05:41:21;;;;;;;10.80;2.70;;;;;;;3.03;100.00;97618.13;5056898;28;20098;-53
2023/01/16 05:43:46;;;;;;;11.65;1.10;;;;;;;3.15;100.00;97626.09;5058902;28;20021;-52
2023/01/16 05:46:12;;;;;;;4.45;0.55;;;;;;;3.25;100.00;97630.84;5058110;28;20030;-55
2023/01/16 05:48:38;;;;;;;8.32;1.05;;;;;;;3.25;100.00;97634.28;5065132;28;20060;-53
2023/01/16 05:51:04;;;;;;;2.70;0.93;;;;;;;3.19;100.00;97635.13;5054030;28;20036;-52
2023/01/16 05:53:30;;;;;;;9.55;1.63;;;;;;;3.16;100.00;97638.16;5075305;28;20042;-55
2023/01/16 05:55:56;;;;;;;4.40;1.90;;;;;;;3.10;100.00;97639.03;5054064;28;20545;-55
2023/01/16 05:58:21;;;;;;;3.53;1.52;;;;;;;3.13;100.00;97635.97;5056737;28;20107;-55
2023/01/16 06:00:47;;;;;;;10.25;1.23;;;;;;;3.05;100.00;97633.63;5051731;28;20059;-53
2023/01/16 06:03:12;;;;;;;7.60;1.67;;;;;;;3.10;100.00;97641.66;5069044;28;20082;-56
2023/01/16 06:05:37;;;;;;;8.75;1.70;;;;;;;3.10;100.00;97639.03;5066471;28;20039;-54
2023/01/16 06:08:04;;;;;;;9.93;1.42;;;;;;;3.16;100.00;97640.78;5063571;28;20028;-54
2023/01/16 06:10:29;;;;;;;4.22;1.13;;;;;;;3.19;100.00;97648.22;5061496;28;20078;-57
2023/01/16 06:12:55;;;;;;;6.28;1.90;;;;;;;3.43;100.00;97637.94;5056969;28;20045;-52
2023/01/16 06:15:20;;;;;;;11.73;0.90;;;;;;;3.64;100.00;97649.84;5062630;28;20064;-54
2023/01/16 06:17:46;;;;;;;3.70;2.28;;;;;;;3.82;100.00;97634.19;5067510;28;20135;-54
2023/01/16 06:20:11;;;;;;;6.22;1.05;;;;;;;3.74;100.00;97625.78;5056291;28;20029;-54
2023/01/16 06:22:37;;;;;;;3.75;1.15;;;;;;;3.68;100.00;97633.50;5071148;28;20040;-55
2023/01/16 06:25:02;;;;;;;1.92;1.00;;;;;;;3.61;100.00;97637.19;5058466;28;20383;-53
2023/01/16 06:27:28;;;;;;;4.20;0.93;;;;;;;3.57;100.00;97636.84;5063091;28;20059;-55
2023/01/16 06:29:53;;;;;;;2.75;0.47;;;;;;;3.46;100.00;97629.69;5055553;28;20413;-53
2023/01/16 06:32:19;;;;;;;4.38;1.35;;;;;;;3.39;100.00;97631.56;5058079;28;20471;-56
2023/01/16 06:34:44;;;;;;;5.05;1.10;;;;;;;3.34;100.00;97636.63;5064395;28;20554;-57
2023/01/16 06:37:10;;;;;;;2.53;1.42;;;;;;;3.19;100.00;97644.78;5068969;28;20073;-56
2023/01/16 06:39:36;;;;;;;6.60;1.02;;;;;;;3.19;100.00;97642.19;5061707;28;20305;-56
2023/01/16 06:42:04;;;;;;;5.03;2.05;;;;;;;3.36;100.00;97643.25;5054753;28;20024;-56
2023/01/16 06:44:30;;;;;;;1.23;0.43;;;;;;;3.23;100.00;97654.63;5071597;28;20067;-57
2023/01/16 06:46:55;;;;;;;5.53;1.48;;;;;;;3.05;100.00;97654.56;5063428;28;20048;-57
2023/01/16 06:49:21;;;;;;;7.95;2.15;;;;;;;2.95;100.00;97659.47;5063571;28;20558;-52
2023/01/16 06:51:46;;;;;;;3.92;1.08;;;;;;;2.93;100.00;97661.47;5060200;28;20063;-53
2023/01/16 06:54:11;;;;;;;2.25;0.65;;;;;;;2.87;100.00;97662.34;5066717;28;20050;-55
2023/01/16 06:56:37;;;;;;;4.35;1.20;;;;;;;3.01;100.00;97663.84;5066405;28;20088;-54
2023/01/16 06:59:03;;;;;;;3.08;1.55;;;;;;;3.04;100.00;97669.44;5062246;28;20036;-52
2023/01/16 07:01:28;;;;;;;4.13;0.88;;;;;;;3.00;100.00;97676.13;5054862;28;20057;-51
2023/01/16 07:03:54;;;;;;;3.90;1.05;;;;;;;2.99;100.00;97677.13;5064872;28;20029;-54
2023/01/16 07:06:19;;;;;;;4.32;1.33;;;;;;;3.01;100.00;97679.56;5058178;28;20497;-57
2023/01/16 07:08:45;;;;;;;2.17;1.00;;;;;;;3.04;100.00;97676.50;5056211;28;20398;-55
2023/01/16 07:11:10;;;;;;;1.33;0.60;;;;;;;2.96;100.00;97684.63;5057177;28;20111;-55
2023/01/16 07:13:36;;;;;;;5.63;1.80;;;;;;;2.87;100.00;97684.06;5060092;28;20104;-51
2023/01/16 07:24:22;;;;;;;4.68;1.23;;;;;;;2.83;100.00;97701.19;5059960;28;20110;-54
2023/01/16 07:26:54;;;;;;;5.22;2.13;;;;;;;2.78;100.00;97701.81;5059774;28;20029;-56
2023/01/16 07:29:19;;;;;;;1.13;0.70;;;;;;;2.84;100.00;97698.38;5064069;28;20039;-56
2023/01/16 07:31:45;;;;;;;9.60;1.40;;;;;;;2.82;100.00;97703.00;5052759;28;20112;-55
2023/01/16 07:34:10;;;;;;;3.40;1.15;;;;;;;2.90;100.00;97701.97;5057050;28;20462;-55
2023/01/16 07:36:35;;;;;;;2.85;0.88;;;;;;;2.86;100.00;97708.63;5064923;28;20028;-51
2023/01/16 07:39:01;;;;;;;7.82;0.82;;;;;;;2.80;100.00;97715.50;5066743;28;20565;-52
2023/01/16 07:41:26;;;;;;;4.60;1.42;;;;;;;2.83;100.00;97719.50;5064869;28;20032;-54
2023/01/16 07:43:51;;;;;;;4.20;0.65;;;;;;;2.89;100.00;97721.31;5064293;28;20080;-54
2023/01/16 07:46:17;;;;;;;3.70;0.73;;;;;;;2.99;100.00;97731.31;5056220;28;20033;-55
2023/01/16 07:48:42;;;;;;;1.05;0.63;;;;;;;3.03;100.00;97729.88;5053608;28;20053;-52
2023/01/16 07:51:07;;;;;;;4.88;1.27;;;;;;;2.91;100.00;97727.09;5058118;28;20035;-53
2023/01/16 07:53:33;;;;;;;4.63;1.55;;;;;;;2.86;100.00;97736.59;5062273;28;20040;-53
2023/01/16 07:56:00;;;;;;;5.43;1.80;;;;;;;2.74;100.00;97734.66;5063854;28;20033;-52
2023/01/16 07:58:27;;;;;;;1.90;0.70;;;;;;;2.90;100.00;97741.22;5060285;28;20021;-54
2023/01/16 08:00:53;;;;;;;2.10;0.80;;;;;;;2.98;100.00;97740.19;5062157;28;20041;-57
2023/01/16 08:03:19;;;;;;;13.85;0.93;;;;;;;2.92;100.00;97736.59;5059773;28;20064;-50
2023/01/16 08:05:44;;;;;;;1.88;0.85;;;;;;;2.90;100.00;97745.66;5059465;28;20492;-55
2023/01/16 08:08:11;;;;;;;2.00;1.17;;;;;;;3.03;100.00;97743.78;5060210;28;20032;-54
2023/01/16 08:10:37;;;;;;;8.52;1.67;;;;;;;3.04;100.00;97747.97;5063326;28;20028;-53
2023/01/16 08:13:02;;;;;;;5.60;1.45;;;;;;;2.95;100.00;97751.06;5060736;28;20126;-56
2023/01/16 08:15:28;;;;;;;7.90;2.53;;;;;;;3.01;100.00;97753.63;5059159;28;20462;-51
2023/01/16 08:17:54;;;;;;;4.65;2.40;;;;;;;3.05;100.00;97746.19;5064930;28;20024;-54
2023/01/16 08:20:19;;;;;;;3.97;2.72;;;;;;;3.15;100.00;97759.63;5056658;28;20025;-52
2023/01/16 08:22:47;;;;;;;30.00;2.80;;;;;;;3.26;100.00;97755.53;5055292;28;20021;-57
2023/01/16 08:25:14;;;;;;;3.38;1.83;;;;;;;3.33;100.00;97760.72;5062971;28;20024;-57
2023/01/16 08:27:39;;;;;;;4.72;2.65;;;;;;;3.30;100.00;97759.31;5057951;28;20478;-53
2023/01/16 08:30:06;;;;;;;3.05;2.03;;;;;;;3.47;100.00;97762.25;5054683;28;20103;-53
2023/01/16 08:32:31;;;;;;;5.40;2.50;;;;;;;3.44;100.00;97762.69;5055725;28;20029;-56
2023/01/16 08:34:56;;;;;;;7.63;2.97;;;;;;;3.41;100.00;97763.13;5061383;28;20845;-50
2023/01/16 08:37:22;;;;;;;9.45;3.72;;;;;;;3.36;100.00;97760.31;5058149;28;20031;-51
2023/01/16 08:39:47;;;;;;;4.97;2.80;;;;;;;3.47;100.00;97772.75;5058404;28;20116;-56
2023/01/16 08:53:09;;;;;;;10.15;3.30;;;;;;;3.88;100.00;97769.63;5049217;28;20064;-56
2023/01/16 08:55:34;;;;;;;18.70;4.18;;;;;;;3.81;100.00;97768.88;5053878;28;20049;-52
2023/01/16 08:58:00;;;;;;;3.72;2.20;;;;;;;3.78;100.00;97778.97;5057786;28;20487;-57
2023/01/16 09:00:29;;;;;;;9.63;2.80;;;;;;;3.86;100.00;97787.38;5053336;28;20086;-53
2023/01/16 09:02:56;;;;;;;2.97;2.15;;;;;;;3.90;100.00;97787.78;5051224;28;20024;-56
2023/01/16 09:05:22;;;;;;;5.32;2.75;;;;;;;3.76;100.00;97783.63;5056690;28;20029;-57
2023/01/16 09:07:48;;;;;;;4.68;2.67;;;;;;;3.79;100.00;97780.56;5063699;28;20024;-54
2023/01/16 09:10:13;;;;;;;4.03;3.13;;;;;;;3.75;100.00;97772.34;5056573;28;20028;-51
2023/01/16 09:15:24;;;;;;;8.65;2.80;;;;;;;3.81;100.00;97786.41;5058652;28;20768;-55
2023/01/16 09:17:49;;;;;;;6.75;2.70;;;;;;;3.69;100.00;97796.75;5054111;28;20075;-56
2023/01/16 09:20:15;;;;;;;13.13;3.00;;;;;;;3.90;100.00;97795.63;5060394;28;20466;-53
2023/01/16 09:22:40;;;;;;;6.15;3.42;;;;;;;3.95;100.00;97801.03;5059349;28;20020;-55
2023/01/16 09:25:06;;;;;;;10.43;4.47;;;;;;;4.03;100.00;97802.59;5056444;28;20196;-53
2023/01/16 09:27:31;;;;;;;8.05;4.22;;;;;;;4.12;100.00;97799.47;5050315;28;20078;-56
2023/01/16 09:29:57;;;;;;;7.45;3.20;;;;;;;4.10;100.00;97795.44;5051266;28;20025;-54
2023/01/16 09:32:22;;;;;;;9.35;4.60;;;;;;;4.07;100.00;97795.88;5052361;28;20021;-55
2023/01/16 09:34:48;;;;;;;5.53;3.17;;;;;;;4.12;100.00;97796.03;5054342;28;20454;-54
2023/01/16 09:37:13;;;;;;;7.53;3.72;;;;;;;3.98;100.00;97805.84;5053003;28;20091;-55
2023/01/16 09:39:39;;;;;;;9.00;3.75;;;;;;;3.96;100.00;97814.94;5057121;28;20117;-50
2023/01/16 09:44:58;;;;;;;11.07;3.45;;;;;;;4.21;100.00;97820.16;5048574;28;20048;-54
2023/01/16 09:47:25;;;;;;;8.85;3.72;;;;;;;4.14;100.00;97826.28;5057652;28;20073;-51
2023/01/16 09:49:58;;;;;;;5.65;3.72;;;;;;;4.02;100.00;97830.59;5054653;28;20028;-54
2023/01/16 09:58:34;;;;;;;5.97;4.00;;;;;;;3.87;100.00;97843.22;5055403;28;20051;-57
2023/01/16 10:01:00;;;;;;;6.10;3.67;;;;;;;3.64;100.00;97855.06;5055011;28;20032;-54
2023/01/16 10:03:26;;;;;;;5.65;3.00;;;;;;;3.75;100.00;97852.81;5058800;28;20076;-53
2023/01/16 10:06:02;;;;;;;3.97;3.53;;;;;;;3.78;100.00;97857.63;5058999;28;20036;-53
2023/01/16 10:08:28;;;;;;;6.13;3.85;;;;;;;3.76;100.00;97860.44;5054428;28;20060;-55
2023/01/16 10:11:21;;;;;;;3.42;2.80;;;;;;;3.77;100.00;97867.31;5056981;28;20072;-58
2023/01/16 10:13:59;;;;;;;5.45;3.10;;;;;;;3.73;100.00;97860.84;5050479;28;20063;-52
2023/01/16 10:16:46;;;;;;;7.03;3.00;;;;;;;3.81;100.00;97867.66;5056737;28;20029;-52
2023/01/16 10:19:33;;;;;;;5.55;3.60;;;;;;;3.87;100.00;97874.69;5054289;28;20631;-53
2023/01/16 10:22:27;;;;;;;5.55;2.60;;;;;;;3.85;100.00;97872.28;5061933;28;20490;-51
2023/01/16 10:25:03;;;;;;;4.55;2.85;;;;;;;3.90;100.00;97885.56;5057446;28;20048;-53
2023/01/16 10:27:37;;;;;;;10.93;3.90;;;;;;;3.91;100.00;97874.06;5040265;28;20039;-54
2023/01/16 10:30:25;;;;;;;8.05;3.13;;;;;;;4.01;100.00;97883.28;5058729;28;20025;-52
2023/01/16 10:32:59;;;;;;;8.55;3.08;;;;;;;4.01;100.00;97880.66;5057598;28;20472;-52
2023/01/16 10:35:33;;;;;;;4.07;2.30;;;;;;;4.16;100.00;97875.91;5058085;28;20780;-53
2023/01/16 10:38:16;;;;;;;6.80;2.95;;;;;;;3.98;100.00;97873.22;5059173;28;20024;-51
2023/01/16 10:40:42;;;;;;;12.38;3.72;;;;;;;4.11;100.00;97884.41;5058641;28;20029;-49
2023/01/16 10:51:44;;;;;;;6.35;3.40;;;;;;;4.24;100.00;97878.28;5055195;28;20504;-54
2023/01/16 10:54:10;;;;;;;5.07;2.40;;;;;;;4.19;100.00;97890.41;5054631;28;20025;-54
2023/01/16 10:56:44;;;;;;;6.43;3.15;;;;;;;4.07;100.00;97887.66;5055249;28;20035;-52
2023/01/16 10:59:14;;;;;;;4.95;3.03;;;;;;;4.11;100.00;97894.91;5053934;28;20036;-54
2023/01/16 11:01:42;;;;;;;5.22;3.22;;;;;;;4.11;100.00;97907.22;5053247;28;20020;-52
2023/01/16 11:04:10;;;;;;;5.38;3.15;;;;;;;3.93;100.00;97905.31;5054440;28;20525;-53
2023/01/16 11:06:37;;;;;;;6.93;3.10;;;;;;;3.99;100.00;97922.00;5053949;28;20500;-52
2023/01/16 11:09:17;;;;;;;8.90;3.00;;;;;;;3.90;100.00;97917.03;5053785;28;20024;-53
2023/01/16 11:20:34;;;;;;;5.55;3.75;;;;;;;3.97;100.00;97924.03;5058741;28;20069;-55
2023/01/16 11:23:05;;;;;;;12.30;3.90;;;;;;;3.91;100.00;97920.44;5055775;28;20033;-51
2023/01/16 11:25:31;;;;;;;6.45;4.13;;;;;;;3.93;100.00;97931.53;5055953;28;20023;-55
2023/01/16 11:28:02;;;;;;;14.27;3.92;;;;;;;3.86;100.00;97939.41;5062355;28;20534;-52
2023/01/16 11:30:33;;;;;;;7.17;5.20;;;;;;;3.97;100.00;97929.28;5058882;28;20618;-52
2023/01/16 11:32:59;;;;;;;7.85;4.03;;;;;;;4.19;100.00;97917.44;5063499;28;20112;-53
2023/01/16 11:35:33;;;;;;;10.45;5.07;;;;;;;4.26;100.00;97925.25;5055829;28;20040;-50
2023/01/16 11:38:02;;;;;;;6.75;4.20;;;;;;;4.34;100.00;97922.41;5060261;28;20103;-52
2023/01/16 11:40:31;;;;;;;7.15;3.60;;;;;;;4.46;100.00;97919.88;5055048;28;20111;-53
2023/01/16 11:46:02;;;;;;;6.32;3.58;;;;;;;4.53;100.00;97920.63;5056582;28;20746;-53
2023/01/16 11:48:44;;;;;;;7.38;3.33;;;;;;;5.06;100.00;97922.78;5052310;28;20045;-52
2023/01/16 11:51:14;;;;;;;8.23;3.33;;;;;;;5.32;100.00;97910.34;5065092;28;20115;-54
2023/01/16 11:53:39;;;;;;;8.77;3.60;;;;;;;5.49;100.00;97907.94;5060541;28;20498;-52
2023/01/16 11:56:37;;;;;;;5.85;3.00;;;;;;;5.58;100.00;97914.53;5059769;28;20037;-53
2023/01/16 11:59:11;;;;;;;14.25;3.75;;;;;;;5.24;100.00;97914.09;5061675;28;20079;-52
2023/01/16 12:02:30;;;;;;;10.30;5.20;;;;;;;5.09;100.00;97911.03;5063858;28;20026;-50
2023/01/16 12:08:27;;;;;;;4.30;2.90;;;;;;;4.97;100.00;97919.63;5060094;28;20091;-50
2023/01/16 12:11:06;;;;;;;6.65;2.55;;;;;;;4.97;100.00;97934.56;5056489;28;20033;-52
2023/01/16 12:16:54;;;;;;;7.82;3.58;;;;;;;4.71;100.00;97940.88;5061114;28;20052;-50
2023/01/16 12:19:47;;;;;;;7.70;5.20;;;;;;;4.26;100.00;97938.38;5061631;28;20066;-54
2023/01/16 12:22:19;;;;;;;6.85;4.50;;;;;;;4.20;100.00;97944.47;5063871;28;20029;-50
2023/01/16 12:24:53;;;;;;;;;;;;;;;4.45;100.00;97945.31;5062868;28;20068;-50
2023/01/16 12:27:39;;;;;;;7.18;3.58;;;;;;;4.38;100.00;97952.41;5063258;28;19927;-52
2023/01/16 12:30:30;;;;;;;5.88;3.30;;;;;;;4.38;100.00;97965.53;5065922;28;20079;-53
2023/01/16 12:33:09;;;;;;;6.97;4.35;;;;;;;4.39;100.00;97961.91;5059338;28;20098;-55
2023/01/16 12:35:53;;;;;;;7.88;3.17;;;;;;;4.19;100.00;97963.84;5060228;28;20481;-53
2023/01/16 12:38:26;;;;;;;8.93;3.05;;;;;;;4.07;100.00;97975.00;5063613;28;20493;-50
2023/01/16 12:44:21;;;;;;;8.57;3.80;;;;;;;3.99;100.00;97969.22;5060507;28;20101;-53
2023/01/16 12:47:16;;;;;;;3.17;2.08;;;;;;;3.80;100.00;97973.53;5058140;28;20052;-56
2023/01/16 12:49:54;;;;;;;4.95;3.03;;;;;;;3.71;100.00;97963.28;5060610;28;20044;-55
2023/01/16 12:52:22;;;;;;;9.00;3.05;;;;;;;3.59;100.00;97969.38;5060580;28;20033;-55